Eagleville, PA

9:04 AM EST on December 18, 2014 (GMT -0500)
KPAEAGLE1 | Change Station
CLOSE
Current Station
Personal Weather Station
Location: Eagleville, PA
Elevation: 459 ft
Nearby Weather Stations

Elev 459 ft 40.16 °N, 75.40 °W | Updated 8 seconds ago

Overcast
Overcast
33.7 °F
Feels Like 34 °F
N
0.0
Wind Variable Wind from NW
Gusts 0.0 mph

Today
High -- | Low -- °F
--% Chance of Precip.
Yesterday
High -- | Low -- °F
Precip. -- in
7:18 AM 4:37 PM
Waning Crescent, 14% visible
Pressure 30.06 in
Visibility 10.0 miles
Clouds Overcast 3900 ft
Windchill 34 °F
Dew Point 26 °F
Humidity 73%
Rainfall 0.00 in
Snow Depth Not available.
UV 0 out of 12
Pollen .10 out of 12
Air Quality Not available.
Flu Activity Not available.
METAR KLOM 181355Z AUTO 28004KT 10SM OVC039 02/M05 A3006 RMK AO1

More Conditions Fewer Conditions

Pressure 30.06 in
Visibility 10.0 miles
Clouds Overcast 3900 ft
Windchill 34 °F
Dew Point 26 °F
Humidity 73%
Rainfall 0.00 in
Snow Depth Not available.
UV 0 out of 12
Pollen .10 out of 12
Air Quality Not available.
Flu Activity Not available.
METAR KLOM 181355Z AUTO 28004KT 10SM OVC039 02/M05 A3006 RMK AO1

More Conditions Fewer Conditions

10-Day Weather Forecast

Almanac

Astronomy

Dec. 18, 2014 Rise Set
Actual Time
Civil Twilight
Nautical Twilight
Astronomical Twilight
Moon
Length of Visible Light
Length of Day
Tomorrow will be .
, % of the Moon is Illuminated

Today's Extremes

State Highs State Lows

Community

WunderPhotos

Upload Photos

1,778,930 photos uploaded!

WunderBlogs® & News

Nearby

Air Quality

  Air Quality AQ Index Pollutant
Not available.

Snow Depth

Station Depth Elevation

Earthquake Activity

City Distance Mag. Time & Date
Minimum magnitude displayed is 2.5.

Coastal Water Temperatures

Place Temperature

Nearby Weather Stations